Time;durP1;ratioP1;P1;durP2;ratioP2;P2;SDS_P1;SDS_P2;PMS_P1;PMS_P2;Temp;Humidity;BMP_temperature;BMP_pressure;BME280_temperature;BME280_humidity;BME280_pressure;Samples;Min_cycle;Max_cycle;Signal;HPM_P1;HPM_P2
2023/11/05 00:00:01;;;;;;;11.10;7.93;;;;;;;;;;5016425;28;20022;-62
2023/11/05 00:02:26;;;;;;;11.18;7.90;;;;;;;;;;5016612;28;20080;-62
2023/11/05 00:04:52;;;;;;;11.40;7.70;;;;;;;;;;5016231;28;20026;-62
2023/11/05 00:07:18;;;;;;;10.68;7.70;;;;;;;;;;5015515;28;20100;-61
2023/11/05 00:09:44;;;;;;;10.10;7.38;;;;;;;;;;5016590;28;20017;-62
2023/11/05 00:12:09;;;;;;;12.18;7.80;;;;;;;;;;5016008;28;20429;-62
2023/11/05 00:14:34;;;;;;;13.57;8.38;;;;;;;;;;5016328;28;20065;-62
2023/11/05 00:17:00;;;;;;;10.85;7.10;;;;;;;;;;5016053;28;20022;-62
2023/11/05 00:19:25;;;;;;;12.13;6.95;;;;;;;;;;5016165;28;20506;-61
2023/11/05 00:21:51;;;;;;;10.68;7.72;;;;;;;;;;5015971;28;20030;-61
2023/11/05 00:24:18;;;;;;;12.52;7.88;;;;;;;;;;5015896;28;20481;-61
2023/11/05 00:26:43;;;;;;;11.98;8.20;;;;;;;;;;4998278;28;20390;-62
2023/11/05 00:29:09;;;;;;;11.93;7.57;;;;;;;;;;5016276;28;20033;-62
2023/11/05 00:31:34;;;;;;;15.13;9.07;;;;;;;;;;5016435;28;20402;-62
2023/11/05 00:34:00;;;;;;;12.90;8.57;;;;;;;;;;4997940;28;20390;-62
2023/11/05 00:36:25;;;;;;;13.43;8.50;;;;;;;;;;5015929;28;20026;-62
2023/11/05 00:38:55;;;;;;;13.15;8.52;;;;;;;;;;5016093;28;20381;-62
2023/11/05 00:41:21;;;;;;;13.60;9.03;;;;;;;;;;5015684;28;20084;-61
2023/11/05 00:43:46;;;;;;;12.35;9.05;;;;;;;;;;5015255;28;20025;-61
2023/11/05 00:46:12;;;;;;;9.27;6.47;;;;;;;;;;5015964;28;20080;-62
2023/11/05 00:48:38;;;;;;;8.80;5.82;;;;;;;;;;5015367;28;20462;-62
2023/11/05 00:51:05;;;;;;;8.30;6.60;;;;;;;;;;4997836;28;20100;-62
2023/11/05 00:53:31;;;;;;;7.53;5.82;;;;;;;;;;4997966;28;20474;-62
2023/11/05 00:55:56;;;;;;;10.50;6.75;;;;;;;;;;4997551;28;20030;-62
2023/11/05 00:58:22;;;;;;;10.07;6.85;;;;;;;;;;4997488;28;20018;-62
2023/11/05 01:00:47;;;;;;;9.93;6.40;;;;;;;;;;5015678;28;20079;-59
2023/11/05 01:03:13;;;;;;;7.72;5.65;;;;;;;;;;4997568;28;20034;-61
2023/11/05 01:05:38;;;;;;;5.90;4.55;;;;;;;;;;5015621;28;20076;-62
2023/11/05 01:08:11;;;;;;;5.90;4.15;;;;;;;;;;4997687;28;20045;-62
2023/11/05 01:10:37;;;;;;;5.53;4.40;;;;;;;;;;5015039;28;20032;-62
2023/11/05 01:13:02;;;;;;;6.85;4.53;;;;;;;;;;4997271;28;20026;-62
2023/11/05 01:15:28;;;;;;;7.95;5.18;;;;;;;;;;4997252;28;20565;-61
2023/11/05 01:17:53;;;;;;;9.20;5.50;;;;;;;;;;5014976;28;20036;-61
2023/11/05 01:20:18;;;;;;;5.25;4.47;;;;;;;;;;5014836;28;20466;-62
2023/11/05 01:22:44;;;;;;;7.43;4.72;;;;;;;;;;4997224;28;20034;-63
2023/11/05 01:25:10;;;;;;;9.18;4.32;;;;;;;;;;5014849;28;20036;-63
2023/11/05 01:27:35;;;;;;;4.80;4.30;;;;;;;;;;4997207;28;20038;-63
2023/11/05 01:30:01;;;;;;;5.25;3.72;;;;;;;;;;4980956;28;20068;-63
2023/11/05 01:32:26;;;;;;;4.70;3.55;;;;;;;;;;4997057;28;20033;-61
2023/11/05 01:34:52;;;;;;;4.50;3.33;;;;;;;;;;5012803;28;20132;-62
2023/11/05 01:37:17;;;;;;;5.18;3.70;;;;;;;;;;4997037;28;20030;-61
2023/11/05 01:39:42;;;;;;;4.78;3.75;;;;;;;;;;5015142;28;20030;-61
2023/11/05 01:42:08;;;;;;;4.55;3.65;;;;;;;;;;5014981;28;20033;-61
2023/11/05 01:44:33;;;;;;;3.83;3.38;;;;;;;;;;5015045;28;20378;-61
2023/11/05 01:46:59;;;;;;;3.97;3.40;;;;;;;;;;5013488;28;20030;-61
2023/11/05 01:49:26;;;;;;;5.75;4.18;;;;;;;;;;5013077;28;20041;-61
2023/11/05 01:51:52;;;;;;;11.07;5.50;;;;;;;;;;5014593;28;20037;-61
2023/11/05 01:54:17;;;;;;;13.02;6.28;;;;;;;;;;5014488;28;20065;-61
2023/11/05 01:56:43;;;;;;;19.02;8.02;;;;;;;;;;5014538;28;20069;-61
2023/11/05 01:59:09;;;;;;;29.42;9.07;;;;;;;;;;5014198;28;20379;-61
2023/11/05 02:01:34;;;;;;;10.77;5.97;;;;;;;;;;4996641;28;20033;-61
2023/11/05 02:04:00;;;;;;;8.30;4.70;;;;;;;;;;5013072;28;20030;-61
2023/11/05 02:06:26;;;;;;;5.85;4.35;;;;;;;;;;5014365;28;20029;-62
2023/11/05 02:08:51;;;;;;;5.25;3.85;;;;;;;;;;5012560;28;20024;-62
2023/11/05 02:11:16;;;;;;;5.72;4.28;;;;;;;;;;5012461;28;20466;-62
2023/11/05 02:13:46;;;;;;;12.77;7.32;;;;;;;;;;5012777;28;20030;-61
2023/11/05 02:16:13;;;;;;;8.85;6.15;;;;;;;;;;5014075;28;20438;-61
2023/11/05 02:18:38;;;;;;;5.50;4.03;;;;;;;;;;5012759;28;20036;-62
2023/11/05 02:21:04;;;;;;;4.82;3.72;;;;;;;;;;5012980;28;20085;-62
2023/11/05 02:23:30;;;;;;;4.78;3.50;;;;;;;;;;5014048;28;20054;-62
2023/11/05 02:25:56;;;;;;;6.03;3.83;;;;;;;;;;5012958;28;20437;-62
2023/11/05 02:28:22;;;;;;;9.00;6.05;;;;;;;;;;5012881;28;20026;-62
2023/11/05 02:30:49;;;;;;;9.00;4.55;;;;;;;;;;5012619;28;20036;-63
2023/11/05 02:33:15;;;;;;;5.22;3.88;;;;;;;;;;5012514;28;20038;-64
2023/11/05 02:35:40;;;;;;;4.13;3.30;;;;;;;;;;5012553;28;20033;-63
2023/11/05 02:38:06;;;;;;;3.67;3.38;;;;;;;;;;5013790;28;20029;-63
2023/11/05 02:40:31;;;;;;;3.90;3.45;;;;;;;;;;5012475;28;20062;-64
2023/11/05 02:42:57;;;;;;;3.35;3.05;;;;;;;;;;5014008;28;20018;-62
2023/11/05 02:45:23;;;;;;;9.32;5.15;;;;;;;;;;5013726;28;20037;-64
2023/11/05 02:47:48;;;;;;;20.25;8.70;;;;;;;;;;5013664;28;20042;-64
2023/11/05 02:50:14;;;;;;;19.88;7.97;;;;;;;;;;5012684;28;20034;-63
2023/11/05 02:52:40;;;;;;;22.70;8.82;;;;;;;;;;5012301;28;20038;-64
2023/11/05 02:55:05;;;;;;;18.65;8.40;;;;;;;;;;5013931;28;20030;-64
2023/11/05 02:57:31;;;;;;;16.23;7.50;;;;;;;;;;5012339;28;20037;-64
2023/11/05 02:59:56;;;;;;;13.73;6.47;;;;;;;;;;5014153;28;20026;-64
2023/11/05 03:02:22;;;;;;;10.02;5.65;;;;;;;;;;5012292;28;20065;-64
2023/11/05 03:04:47;;;;;;;20.75;9.77;;;;;;;;;;5012256;28;20041;-64
2023/11/05 03:07:13;;;;;;;26.35;11.38;;;;;;;;;;5012257;28;20026;-64
2023/11/05 03:09:39;;;;;;;15.80;7.45;;;;;;;;;;5012172;28;20034;-64
2023/11/05 03:12:05;;;;;;;11.77;5.72;;;;;;;;;;5013696;28;20045;-64
2023/11/05 03:14:31;;;;;;;9.02;5.03;;;;;;;;;;5012672;28;20033;-64
2023/11/05 03:16:56;;;;;;;6.28;4.20;;;;;;;;;;4992780;28;20113;-64
2023/11/05 03:19:23;;;;;;;6.43;3.90;;;;;;;;;;4994316;28;20038;-64
2023/11/05 03:21:48;;;;;;;6.00;3.90;;;;;;;;;;4994530;28;20092;-64
2023/11/05 03:24:13;;;;;;;4.28;3.30;;;;;;;;;;4996867;28;20038;-64
2023/11/05 03:26:39;;;;;;;3.67;3.28;;;;;;;;;;4996197;28;20091;-63
2023/11/05 03:29:05;;;;;;;6.47;3.45;;;;;;;;;;4980288;28;20091;-63
2023/11/05 03:31:31;;;;;;;3.53;3.22;;;;;;;;;;4996162;28;20104;-64
2023/11/05 03:33:57;;;;;;;3.22;2.75;;;;;;;;;;4995639;28;20069;-64
2023/11/05 03:36:22;;;;;;;3.28;2.70;;;;;;;;;;4996167;28;20030;-64
2023/11/05 03:38:48;;;;;;;3.15;2.85;;;;;;;;;;4997740;28;20030;-64
2023/11/05 03:41:13;;;;;;;4.57;3.00;;;;;;;;;;4995951;28;20187;-64
2023/11/05 03:43:38;;;;;;;3.50;3.13;;;;;;;;;;4995826;28;20030;-64
2023/11/05 03:46:04;;;;;;;4.00;3.10;;;;;;;;;;4995841;28;20038;-64
2023/11/05 03:48:30;;;;;;;4.57;3.25;;;;;;;;;;4995720;28;20034;-64
2023/11/05 03:50:55;;;;;;;4.95;3.17;;;;;;;;;;4997099;28;20038;-64
2023/11/05 03:53:21;;;;;;;5.22;3.35;;;;;;;;;;4995780;28;20466;-64
2023/11/05 03:55:47;;;;;;;3.90;3.47;;;;;;;;;;4996853;28;20022;-64
2023/11/05 03:58:12;;;;;;;5.80;2.88;;;;;;;;;;4996171;28;20022;-64
2023/11/05 04:00:37;;;;;;;5.68;3.22;;;;;;;;;;4996950;28;20072;-64
2023/11/05 04:03:03;;;;;;;8.73;3.85;;;;;;;;;;4996986;28;20031;-65
2023/11/05 04:05:28;;;;;;;12.85;7.03;;;;;;;;;;4996680;28;20022;-65
2023/11/05 04:07:54;;;;;;;11.27;6.20;;;;;;;;;;4995421;28;20030;-65
2023/11/05 04:10:20;;;;;;;8.93;4.65;;;;;;;;;;4996866;28;20030;-64
2023/11/05 04:12:46;;;;;;;6.82;3.92;;;;;;;;;;4994811;28;20371;-65
2023/11/05 04:15:11;;;;;;;3.33;3.03;;;;;;;;;;4994945;28;20022;-64
2023/11/05 04:17:37;;;;;;;4.75;3.58;;;;;;;;;;4996199;28;20466;-63
2023/11/05 04:20:04;;;;;;;5.05;3.13;;;;;;;;;;4996901;28;20031;-63
2023/11/05 04:22:29;;;;;;;4.47;3.20;;;;;;;;;;4996416;28;20030;-63
2023/11/05 04:24:55;;;;;;;2.92;2.63;;;;;;;;;;4996643;28;20038;-63
2023/11/05 04:27:20;;;;;;;3.03;2.67;;;;;;;;;;4995292;28;20054;-63
2023/11/05 04:29:46;;;;;;;3.00;2.53;;;;;;;;;;4996424;28;20038;-63
2023/11/05 04:32:11;;;;;;;3.45;2.80;;;;;;;;;;4996307;28;20031;-64
2023/11/05 04:34:37;;;;;;;4.07;2.95;;;;;;;;;;4995636;28;20045;-64
2023/11/05 04:37:03;;;;;;;4.57;2.97;;;;;;;;;;4978733;28;20390;-64
2023/11/05 04:39:28;;;;;;;3.92;3.25;;;;;;;;;;4995726;28;20026;-64
2023/11/05 04:41:54;;;;;;;2.92;2.63;;;;;;;;;;4996329;28;20465;-64
2023/11/05 04:44:19;;;;;;;4.60;3.25;;;;;;;;;;4996530;28;20586;-64
2023/11/05 04:46:45;;;;;;;4.75;3.88;;;;;;;;;;4996333;28;20034;-64
2023/11/05 04:49:10;;;;;;;5.15;3.55;;;;;;;;;;4996406;28;20474;-64
2023/11/05 04:51:35;;;;;;;9.93;6.07;;;;;;;;;;4996531;28;20049;-64
2023/11/05 04:54:01;;;;;;;19.13;9.00;;;;;;;;;;4996006;28;20031;-63
2023/11/05 04:56:27;;;;;;;20.58;10.60;;;;;;;;;;4978505;28;20030;-64
2023/11/05 04:58:52;;;;;;;21.73;10.57;;;;;;;;;;4995947;28;20030;-64
2023/11/05 05:01:18;;;;;;;34.20;14.48;;;;;;;;;;4995675;28;20050;-64
2023/11/05 05:03:43;;;;;;;10.70;5.78;;;;;;;;;;4995919;28;20122;-64
2023/11/05 05:06:08;;;;;;;8.38;4.78;;;;;;;;;;4995924;28;20038;-64
2023/11/05 05:08:34;;;;;;;8.15;4.40;;;;;;;;;;4995741;28;20042;-64
2023/11/05 05:11:00;;;;;;;7.60;4.28;;;;;;;;;;4977844;28;20422;-64
2023/11/05 05:13:25;;;;;;;7.18;4.35;;;;;;;;;;4995418;28;20482;-64
2023/11/05 05:15:51;;;;;;;4.65;3.40;;;;;;;;;;4995204;28;20072;-64
2023/11/05 05:18:16;;;;;;;5.82;3.38;;;;;;;;;;4995603;28;20035;-63
2023/11/05 05:20:41;;;;;;;3.40;3.10;;;;;;;;;;4995283;28;20041;-63
2023/11/05 05:23:07;;;;;;;4.65;2.83;;;;;;;;;;4995572;28;20042;-63
2023/11/05 05:25:33;;;;;;;5.30;3.40;;;;;;;;;;4978337;28;20030;-63
2023/11/05 05:27:58;;;;;;;7.72;4.78;;;;;;;;;;4977729;28;20038;-63
2023/11/05 05:30:24;;;;;;;7.93;4.50;;;;;;;;;;4995900;28;20026;-63
2023/11/05 05:32:50;;;;;;;11.18;6.03;;;;;;;;;;4995264;28;20037;-64
2023/11/05 05:35:15;;;;;;;21.20;10.18;;;;;;;;;;4977970;28;20065;-64
2023/11/05 05:37:41;;;;;;;24.33;11.48;;;;;;;;;;4995262;28;20054;-63
2023/11/05 05:40:06;;;;;;;26.30;14.63;;;;;;;;;;4995428;28;20470;-63
2023/11/05 05:42:32;;;;;;;10.32;6.13;;;;;;;;;;4978157;28;20450;-63
2023/11/05 05:44:57;;;;;;;6.85;4.22;;;;;;;;;;4976673;28;20117;-63
2023/11/05 05:47:23;;;;;;;5.25;3.63;;;;;;;;;;4994962;28;20048;-63
2023/11/05 05:49:49;;;;;;;4.03;3.20;;;;;;;;;;4976962;28;20058;-63
2023/11/05 05:52:15;;;;;;;5.50;3.25;;;;;;;;;;4977088;28;20537;-63
2023/11/05 05:54:40;;;;;;;4.53;3.13;;;;;;;;;;5010119;28;20045;-63
2023/11/05 05:57:06;;;;;;;4.80;3.05;;;;;;;;;;4994819;28;20092;-63
2023/11/05 05:59:32;;;;;;;5.72;4.10;;;;;;;;;;4995222;28;20034;-63
2023/11/05 06:01:59;;;;;;;4.68;3.83;;;;;;;;;;4994550;28;20493;-63
2023/11/05 06:04:25;;;;;;;4.32;3.00;;;;;;;;;;4994773;28;20057;-63
2023/11/05 06:06:50;;;;;;;3.50;2.85;;;;;;;;;;4994599;28;20038;-63
2023/11/05 06:09:19;;;;;;;3.40;2.50;;;;;;;;;;4995026;28;20120;-63
2023/11/05 06:11:48;;;;;;;4.65;2.72;;;;;;;;;;4977060;28;20053;-63
2023/11/05 06:14:14;;;;;;;2.97;2.70;;;;;;;;;;4994709;28;20062;-63
2023/11/05 06:16:39;;;;;;;10.02;7.32;;;;;;;;;;4973359;23;20038;-62
2023/11/05 06:19:05;;;;;;;18.13;12.15;;;;;;;;;;4996266;28;20096;-62
2023/11/05 06:21:31;;;;;;;71.35;39.20;;;;;;;;;;5014072;28;20044;-62
2023/11/05 06:23:57;;;;;;;57.85;33.80;;;;;;;;;;5014348;28;20059;-62
2023/11/05 06:26:24;;;;;;;39.08;24.02;;;;;;;;;;5014055;28;20096;-62
2023/11/05 06:28:50;;;;;;;37.47;21.25;;;;;;;;;;5013969;28;20458;-62
2023/11/05 06:31:16;;;;;;;29.02;16.13;;;;;;;;;;5013839;28;20057;-62
2023/11/05 06:33:41;;;;;;;26.38;17.08;;;;;;;;;;5013838;28;20038;-62
2023/11/05 06:36:07;;;;;;;40.10;26.80;;;;;;;;;;5013967;28;20030;-61
2023/11/05 06:38:33;;;;;;;45.92;29.77;;;;;;;;;;5014051;28;20022;-62
2023/11/05 06:40:58;;;;;;;27.50;19.08;;;;;;;;;;5013905;28;20351;-61
2023/11/05 06:43:24;;;;;;;23.20;15.63;;;;;;;;;;4980290;28;20029;-61
2023/11/05 06:45:50;;;;;;;27.95;17.00;;;;;;;;;;5013710;28;20428;-61
2023/11/05 06:48:15;;;;;;;19.95;11.95;;;;;;;;;;5013877;28;20029;-61
2023/11/05 06:50:40;;;;;;;19.27;11.73;;;;;;;;;;5013978;28;20034;-62
2023/11/05 06:53:06;;;;;;;21.33;10.65;;;;;;;;;;5013915;28;20030;-61
2023/11/05 06:55:31;;;;;;;11.88;8.32;;;;;;;;;;5013742;28;20072;-61
2023/11/05 06:57:57;;;;;;;12.27;7.68;;;;;;;;;;5018080;28;20034;-60
2023/11/05 07:00:22;;;;;;;13.43;7.30;;;;;;;;;;5017731;28;20029;-62
2023/11/05 07:02:47;;;;;;;11.55;6.75;;;;;;;;;;4984060;28;20034;-61
2023/11/05 07:05:15;;;;;;;11.20;6.95;;;;;;;;;;4999933;28;20064;-61
2023/11/05 07:07:40;;;;;;;49.72;18.65;;;;;;;;;;5017492;28;20133;-61
2023/11/05 07:10:06;;;;;;;104.85;34.83;;;;;;;;;;5017650;28;20525;-62
2023/11/05 07:12:32;;;;;;;62.30;22.83;;;;;;;;;;5017131;28;20026;-62
2023/11/05 07:14:58;;;;;;;22.65;10.48;;;;;;;;;;5017256;28;20100;-61
2023/11/05 07:17:24;;;;;;;20.48;9.77;;;;;;;;;;5017392;28;20048;-61
2023/11/05 07:19:50;;;;;;;53.10;20.48;;;;;;;;;;5016685;28;20026;-60
2023/11/05 07:22:15;;;;;;;17.50;8.98;;;;;;;;;;5017211;28;20037;-60
2023/11/05 07:24:41;;;;;;;9.02;5.00;;;;;;;;;;5016638;28;20037;-60
2023/11/05 07:27:06;;;;;;;9.27;4.75;;;;;;;;;;5017120;28;20105;-60
2023/11/05 07:29:32;;;;;;;5.30;3.13;;;;;;;;;;5016810;28;20041;-60
2023/11/05 07:31:58;;;;;;;4.22;2.72;;;;;;;;;;5016540;28;20033;-61
2023/11/05 07:34:24;;;;;;;2.58;2.20;;;;;;;;;;5016829;28;20025;-61
2023/11/05 07:36:49;;;;;;;2.50;2.30;;;;;;;;;;5016820;28;20390;-60
2023/11/05 07:39:15;;;;;;;2.55;2.17;;;;;;;;;;5032178;28;20014;-60
2023/11/05 07:41:41;;;;;;;5.47;2.60;;;;;;;;;;5016706;28;20489;-58
2023/11/05 07:44:07;;;;;;;3.45;3.15;;;;;;;;;;4999349;28;20441;-60
2023/11/05 07:46:33;;;;;;;5.32;4.80;;;;;;;;;;5016705;28;20053;-60
2023/11/05 07:48:58;;;;;;;7.95;5.45;;;;;;;;;;5016236;28;20037;-60
2023/11/05 07:51:24;;;;;;;9.75;5.88;;;;;;;;;;5016977;28;20038;-61
2023/11/05 07:53:49;;;;;;;10.63;6.93;;;;;;;;;;5016847;28;20041;-60
2023/11/05 07:56:16;;;;;;;11.90;6.93;;;;;;;;;;4998973;28;20068;-60
2023/11/05 07:58:41;;;;;;;6.15;5.30;;;;;;;;;;5016562;28;20029;-60
2023/11/05 08:01:07;;;;;;;7.60;5.20;;;;;;;;;;5016604;28;20116;-60
2023/11/05 08:03:32;;;;;;;7.40;5.90;;;;;;;;;;5016696;28;20494;-61
2023/11/05 08:05:57;;;;;;;7.15;5.88;;;;;;;;;;5016179;28;20409;-60
2023/11/05 08:08:23;;;;;;;8.75;5.72;;;;;;;;;;5015654;28;20469;-62
2023/11/05 08:10:48;;;;;;;8.85;5.70;;;;;;;;;;4999101;28;20022;-59
2023/11/05 08:13:14;;;;;;;9.07;5.88;;;;;;;;;;5015833;28;20026;-59
2023/11/05 08:15:40;;;;;;;7.82;5.43;;;;;;;;;;5015814;28;20026;-58
2023/11/05 08:18:05;;;;;;;24.15;13.50;;;;;;;;;;5013596;28;20045;-59
2023/11/05 08:20:32;;;;;;;33.40;20.38;;;;;;;;;;5015749;28;20625;-59
2023/11/05 08:22:58;;;;;;;44.10;25.10;;;;;;;;;;5015896;28;20025;-59
2023/11/05 08:25:23;;;;;;;79.57;41.75;;;;;;;;;;5015470;28;20398;-59
2023/11/05 08:27:49;;;;;;;72.78;35.63;;;;;;;;;;5015078;28;20046;-60
2023/11/05 08:30:15;;;;;;;58.67;21.30;;;;;;;;;;5015315;28;20068;-60
2023/11/05 08:32:41;;;;;;;26.05;12.60;;;;;;;;;;5014830;28;20034;-60
2023/11/05 08:35:07;;;;;;;17.02;8.75;;;;;;;;;;5014975;28;20424;-60
2023/11/05 08:37:34;;;;;;;17.85;9.55;;;;;;;;;;4997701;28;20060;-60
2023/11/05 08:40:00;;;;;;;19.80;10.48;;;;;;;;;;5015284;28;20068;-60
2023/11/05 08:42:26;;;;;;;12.45;8.40;;;;;;;;;;5015297;28;20029;-59
2023/11/05 08:44:52;;;;;;;14.98;7.43;;;;;;;;;;5015177;28;20038;-60
2023/11/05 08:47:17;;;;;;;8.30;5.22;;;;;;;;;;5015020;28;20030;-60
2023/11/05 08:49:42;;;;;;;13.85;6.63;;;;;;;;;;5015240;28;20021;-60
2023/11/05 08:52:09;;;;;;;11.80;6.40;;;;;;;;;;5015228;28;20041;-60
2023/11/05 08:54:34;;;;;;;15.48;6.45;;;;;;;;;;5015151;28;20022;-59
2023/11/05 08:57:00;;;;;;;24.67;9.02;;;;;;;;;;5014730;28;20099;-60
2023/11/05 08:59:26;;;;;;;38.55;12.90;;;;;;;;;;5015136;28;20022;-60
2023/11/05 09:01:52;;;;;;;60.97;19.00;;;;;;;;;;5015048;28;20046;-60
2023/11/05 09:04:17;;;;;;;44.55;15.60;;;;;;;;;;4997123;28;20163;-60
2023/11/05 09:06:44;;;;;;;28.38;12.23;;;;;;;;;;4997005;28;20117;-60
2023/11/05 09:09:10;;;;;;;30.70;12.20;;;;;;;;;;5014731;28;20033;-60
2023/11/05 09:11:37;;;;;;;24.05;10.25;;;;;;;;;;5014239;28;20029;-60
2023/11/05 09:14:02;;;;;;;28.45;12.10;;;;;;;;;;5014531;28;20032;-60
2023/11/05 09:16:28;;;;;;;28.10;11.70;;;;;;;;;;5014496;28;20105;-60
2023/11/05 09:18:53;;;;;;;13.57;7.38;;;;;;;;;;5010579;28;20512;-60
2023/11/05 09:21:19;;;;;;;9.38;5.57;;;;;;;;;;5013631;28;20103;-60
2023/11/05 09:23:44;;;;;;;4.65;3.40;;;;;;;;;;5013054;28;20057;-58
2023/11/05 09:26:09;;;;;;;3.47;2.63;;;;;;;;;;5012116;28;20080;-60
2023/11/05 09:28:35;;;;;;;3.97;2.65;;;;;;;;;;5013697;28;20037;-60
2023/11/05 09:31:00;;;;;;;5.28;3.05;;;;;;;;;;5011668;28;20033;-60
2023/11/05 09:33:26;;;;;;;2.70;2.50;;;;;;;;;;5013628;28;20025;-59
2023/11/05 09:35:51;;;;;;;3.08;2.80;;;;;;;;;;5012860;28;20064;-59
2023/11/05 09:38:18;;;;;;;2.45;2.25;;;;;;;;;;4995894;28;20018;-59
2023/11/05 09:40:44;;;;;;;2.22;2.03;;;;;;;;;;5012229;28;20371;-60
2023/11/05 09:43:10;;;;;;;4.22;2.97;;;;;;;;;;5013540;28;20038;-60
2023/11/05 09:45:36;;;;;;;65.28;39.53;;;;;;;;;;4995664;28;20565;-59
2023/11/05 09:48:06;;;;;;;11.02;9.02;;;;;;;;;;5012901;28;20057;-59
2023/11/05 09:50:38;;;;;;;4.35;3.95;;;;;;;;;;4996033;28;20033;-59
2023/11/05 09:53:04;;;;;;;12.25;8.32;;;;;;;;;;5013147;28;20033;-59
2023/11/05 09:55:30;;;;;;;10.05;6.40;;;;;;;;;;5012826;28;20188;-59
2023/11/05 09:57:56;;;;;;;5.30;4.43;;;;;;;;;;5012951;28;20497;-59
2023/11/05 10:00:22;;;;;;;5.40;3.97;;;;;;;;;;5013143;28;20034;-59
2023/11/05 10:02:55;;;;;;;4.10;3.80;;;;;;;;;;5012959;28;20367;-59
2023/11/05 10:05:21;;;;;;;52.78;28.48;;;;;;;;;;5012129;28;20490;-59
2023/11/05 10:07:48;;;;;;;29.77;16.55;;;;;;;;;;5013281;28;20080;-62
2023/11/05 10:10:14;;;;;;;10.07;6.53;;;;;;;;;;5012493;28;20030;-68
2023/11/05 10:12:39;;;;;;;9.48;5.75;;;;;;;;;;4995051;28;20034;-60
2023/11/05 10:15:05;;;;;;;10.05;5.30;;;;;;;;;;5012797;28;20061;-60
2023/11/05 10:17:32;;;;;;;10.73;6.05;;;;;;;;;;5011112;28;20050;-59
2023/11/05 10:19:57;;;;;;;10.32;6.47;;;;;;;;;;5012838;28;20026;-59
2023/11/05 10:22:23;;;;;;;10.20;4.88;;;;;;;;;;5012807;28;20080;-60
2023/11/05 10:24:50;;;;;;;5.10;3.67;;;;;;;;;;5011796;28;20061;-59
2023/11/05 10:27:26;;;;;;;4.05;3.15;;;;;;;;;;5012865;28;20363;-60
2023/11/05 10:29:51;;;;;;;7.60;5.13;;;;;;;;;;5012596;28;20030;-59
2023/11/05 10:32:17;;;;;;;5.00;3.60;;;;;;;;;;5011782;28;20026;-59
2023/11/05 10:34:42;;;;;;;5.15;3.10;;;;;;;;;;5012471;28;20025;-59
2023/11/05 10:37:08;;;;;;;3.80;3.28;;;;;;;;;;5012417;28;20030;-59
2023/11/05 10:39:33;;;;;;;4.82;3.42;;;;;;;;;;5011389;28;20038;-59
2023/11/05 10:42:00;;;;;;;6.88;4.57;;;;;;;;;;5012635;28;20030;-60
2023/11/05 10:44:27;;;;;;;11.48;5.68;;;;;;;;;;5012549;28;20041;-59
2023/11/05 10:46:55;;;;;;;8.40;5.30;;;;;;;;;;5012581;28;20033;-59
2023/11/05 10:49:21;;;;;;;5.15;3.65;;;;;;;;;;5012542;28;20485;-59
2023/11/05 10:51:48;;;;;;;3.97;3.60;;;;;;;;;;5012353;28;20040;-58
2023/11/05 10:54:15;;;;;;;4.22;3.92;;;;;;;;;;5012358;28;20022;-59
2023/11/05 10:56:43;;;;;;;4.30;3.90;;;;;;;;;;5011589;28;20133;-59
2023/11/05 10:59:09;;;;;;;4.78;3.58;;;;;;;;;;5012544;28;20036;-59
2023/11/05 11:01:36;;;;;;;7.95;5.85;;;;;;;;;;5012569;28;20034;-60
2023/11/05 11:04:09;;;;;;;17.55;12.68;;;;;;;;;;5011956;28;20125;-60
2023/11/05 11:06:36;;;;;;;59.03;33.13;;;;;;;;;;5011093;28;20117;-59
2023/11/05 11:09:11;;;;;;;407.95;273.17;;;;;;;;;;5012292;28;20041;-59
2023/11/05 11:11:39;;;;;;;680.15;466.38;;;;;;;;;;5012417;28;20088;-59
2023/11/05 11:14:05;;;;;;;102.50;69.47;;;;;;;;;;5012048;28;20482;-61
2023/11/05 11:16:31;;;;;;;135.52;94.20;;;;;;;;;;5012579;28;20130;-61
2023/11/05 11:18:57;;;;;;;170.65;94.63;;;;;;;;;;5011597;28;20042;-60
2023/11/05 11:21:23;;;;;;;180.13;71.82;;;;;;;;;;5012383;28;20030;-60
2023/11/05 11:23:49;;;;;;;26.25;14.38;;;;;;;;;;5012123;28;20088;-60
2023/11/05 11:26:27;;;;;;;23.95;17.65;;;;;;;;;;5012707;28;20389;-60
2023/11/05 11:28:54;;;;;;;6.43;5.80;;;;;;;;;;5013127;28;20121;-60
2023/11/05 11:31:19;;;;;;;109.53;47.97;;;;;;;;;;5013281;28;20072;-60
2023/11/05 11:33:45;;;;;;;6.10;4.22;;;;;;;;;;5012266;28;20054;-60
2023/11/05 11:36:11;;;;;;;7.22;5.15;;;;;;;;;;4993838;28;20026;-63
2023/11/05 11:38:36;;;;;;;7.90;4.38;;;;;;;;;;5013103;28;20026;-64
2023/11/05 11:41:08;;;;;;;5.40;4.15;;;;;;;;;;5013192;28;20026;-64
2023/11/05 11:43:34;;;;;;;5.47;4.97;;;;;;;;;;5014412;28;20473;-63
2023/11/05 11:46:00;;;;;;;5.85;5.22;;;;;;;;;;5016199;28;20022;-63
2023/11/05 11:48:28;;;;;;;3.60;3.30;;;;;;;;;;5016202;28;20109;-63
2023/11/05 11:51:01;;;;;;;3.22;2.75;;;;;;;;;;4997949;28;20449;-64
2023/11/05 11:53:29;;;;;;;3.65;2.97;;;;;;;;;;5014609;28;20409;-64
2023/11/05 11:55:56;;;;;;;5.28;3.33;;;;;;;;;;4996955;28;20026;-64
2023/11/05 11:58:21;;;;;;;5.32;4.45;;;;;;;;;;4997041;28;20014;-64
2023/11/05 12:00:47;;;;;;;5.20;4.55;;;;;;;;;;5014795;28;20157;-63
2023/11/05 12:03:13;;;;;;;5.30;4.30;;;;;;;;;;5015465;28;20062;-64
2023/11/05 12:05:43;;;;;;;3.65;3.30;;;;;;;;;;4997648;28;20030;-64
2023/11/05 12:08:09;;;;;;;3.75;3.45;;;;;;;;;;5016658;28;20034;-64
2023/11/05 12:10:34;;;;;;;3.25;2.88;;;;;;;;;;4998832;28;20038;-64
2023/11/05 12:13:00;;;;;;;4.30;3.70;;;;;;;;;;4999037;28;20116;-64
2023/11/05 12:15:26;;;;;;;9.68;5.50;;;;;;;;;;5016764;28;20077;-64
2023/11/05 12:17:51;;;;;;;4.72;3.63;;;;;;;;;;5003282;28;20056;-63
2023/11/05 12:20:17;;;;;;;3.72;2.70;;;;;;;;;;5016130;28;20104;-63
2023/11/05 12:22:45;;;;;;;3.88;3.35;;;;;;;;;;5016873;28;20034;-64
2023/11/05 12:25:12;;;;;;;5.95;4.43;;;;;;;;;;5016034;28;20080;-64
2023/11/05 12:27:46;;;;;;;14.02;7.85;;;;;;;;;;5016252;28;20107;-64
2023/11/05 12:30:16;;;;;;;8.05;6.20;;;;;;;;;;5014590;28;20041;-64
2023/11/05 12:32:41;;;;;;;4.90;4.50;;;;;;;;;;5016091;28;20026;-63
2023/11/05 12:35:07;;;;;;;7.63;6.93;;;;;;;;;;5015810;28;20030;-63
2023/11/05 12:37:33;;;;;;;12.65;11.43;;;;;;;;;;5015934;28;20029;-63
2023/11/05 12:39:58;;;;;;;5.50;5.00;;;;;;;;;;5016038;28;20107;-63
2023/11/05 12:42:24;;;;;;;3.17;2.97;;;;;;;;;;5016260;28;20037;-63
2023/11/05 12:44:49;;;;;;;5.78;3.05;;;;;;;;;;5016190;28;20045;-63
2023/11/05 12:47:16;;;;;;;5.25;3.28;;;;;;;;;;5015870;28;20049;-64
2023/11/05 12:49:41;;;;;;;6.63;5.15;;;;;;;;;;5015796;28;20033;-63
2023/11/05 12:52:07;;;;;;;3.92;3.05;;;;;;;;;;5014653;28;20022;-63
2023/11/05 12:54:32;;;;;;;6.45;5.38;;;;;;;;;;5015077;28;20496;-63
2023/11/05 12:56:58;;;;;;;7.75;5.35;;;;;;;;;;5015384;28;20378;-63
2023/11/05 12:59:24;;;;;;;4.22;3.83;;;;;;;;;;5015622;28;20044;-63
2023/11/05 13:01:49;;;;;;;4.57;4.07;;;;;;;;;;5015620;28;20117;-63
2023/11/05 13:04:15;;;;;;;4.63;4.20;;;;;;;;;;5015150;28;20085;-64
2023/11/05 13:06:43;;;;;;;3.30;3.00;;;;;;;;;;5015543;28;20037;-63
2023/11/05 13:09:09;;;;;;;3.58;3.28;;;;;;;;;;5015034;28;20456;-63
2023/11/05 13:11:34;;;;;;;3.50;3.20;;;;;;;;;;5015356;28;20030;-63
2023/11/05 13:14:00;;;;;;;3.00;2.80;;;;;;;;;;5015369;28;20364;-63
2023/11/05 13:16:26;;;;;;;3.40;3.08;;;;;;;;;;5015053;28;20065;-63
2023/11/05 13:18:52;;;;;;;2.72;2.53;;;;;;;;;;5014910;28;20081;-63
2023/11/05 13:21:17;;;;;;;2.97;2.70;;;;;;;;;;4981185;28;20164;-63
2023/11/05 13:23:44;;;;;;;5.20;4.22;;;;;;;;;;4997364;28;20484;-63
2023/11/05 13:26:12;;;;;;;4.57;4.18;;;;;;;;;;5015421;28;20029;-64
2023/11/05 13:28:37;;;;;;;3.95;3.53;;;;;;;;;;5015098;28;20038;-64
2023/11/05 13:31:03;;;;;;;3.88;3.30;;;;;;;;;;5014677;28;20105;-64
2023/11/05 13:33:28;;;;;;;3.67;3.38;;;;;;;;;;4997147;28;20351;-64
2023/11/05 13:35:54;;;;;;;6.70;3.83;;;;;;;;;;5015241;28;20041;-64
2023/11/05 13:38:19;;;;;;;6.15;5.30;;;;;;;;;;4997178;28;20093;-63
2023/11/05 13:40:44;;;;;;;3.90;3.60;;;;;;;;;;5014890;28;20470;-63
2023/11/05 13:43:10;;;;;;;4.20;3.22;;;;;;;;;;5014871;28;20034;-63
2023/11/05 13:45:35;;;;;;;3.42;3.13;;;;;;;;;;4997088;28;20084;-63
2023/11/05 13:48:01;;;;;;;7.13;5.60;;;;;;;;;;5015029;28;20113;-63
2023/11/05 13:50:27;;;;;;;7.28;5.30;;;;;;;;;;5014761;28;20034;-63
2023/11/05 13:52:55;;;;;;;10.23;7.57;;;;;;;;;;5014347;28;20034;-63
2023/11/05 13:55:20;;;;;;;6.55;5.95;;;;;;;;;;4997596;28;20080;-64
2023/11/05 13:57:45;;;;;;;7.70;5.93;;;;;;;;;;5014346;28;20026;-64
2023/11/05 14:00:13;;;;;;;8.27;4.95;;;;;;;;;;5014334;28;20064;-64
2023/11/05 14:02:39;;;;;;;4.13;3.30;;;;;;;;;;5014561;28;20120;-64
2023/11/05 14:05:04;;;;;;;3.50;3.20;;;;;;;;;;5014240;28;20112;-64
2023/11/05 14:07:31;;;;;;;2.47;2.28;;;;;;;;;;5013851;28;20033;-64
2023/11/05 14:09:57;;;;;;;2.50;2.38;;;;;;;;;;5014489;28;20018;-63
2023/11/05 14:12:23;;;;;;;3.22;2.72;;;;;;;;;;5014315;28;20461;-63
2023/11/05 14:14:48;;;;;;;2.72;2.53;;;;;;;;;;5014659;28;20030;-63
2023/11/05 14:17:15;;;;;;;4.10;3.65;;;;;;;;;;5014215;28;20465;-63
2023/11/05 14:19:40;;;;;;;6.28;4.85;;;;;;;;;;5014294;28;20033;-63
2023/11/05 14:22:06;;;;;;;3.85;3.33;;;;;;;;;;5014281;28;20109;-64
2023/11/05 14:24:32;;;;;;;3.15;2.85;;;;;;;;;;5013988;28;20481;-64
2023/11/05 14:26:58;;;;;;;2.47;2.28;;;;;;;;;;5012672;28;20038;-64